sensor_id;sensor_type;location;lat;lon;timestamp;P1;durP1;ratioP1;P2;durP2;ratioP2
1591;SDS011;789;51.612;7.510;2023-09-18T00:00:58;8.93;;;7.70;;
1591;SDS011;789;51.612;7.510;2023-09-18T00:03:27;9.23;;;7.93;;
1591;SDS011;789;51.612;7.510;2023-09-18T00:05:56;9.43;;;8.50;;
1591;SDS011;789;51.612;7.510;2023-09-18T00:08:22;9.63;;;7.87;;
1591;SDS011;789;51.612;7.510;2023-09-18T00:10:50;8.60;;;7.80;;
1591;SDS011;789;51.612;7.510;2023-09-18T00:13:19;9.50;;;8.30;;
1591;SDS011;789;51.612;7.510;2023-09-18T00:15:46;9.30;;;8.30;;
1591;SDS011;789;51.612;7.510;2023-09-18T00:18:13;11.03;;;8.57;;
1591;SDS011;789;51.612;7.510;2023-09-18T00:20:39;9.93;;;7.87;;
1591;SDS011;789;51.612;7.510;2023-09-18T00:23:11;8.37;;;7.53;;
1591;SDS011;789;51.612;7.510;2023-09-18T00:25:38;10.43;;;9.43;;
1591;SDS011;789;51.612;7.510;2023-09-18T00:28:06;8.90;;;8.00;;
1591;SDS011;789;51.612;7.510;2023-09-18T00:30:33;10.03;;;8.20;;
1591;SDS011;789;51.612;7.510;2023-09-18T00:32:59;9.17;;;8.27;;
1591;SDS011;789;51.612;7.510;2023-09-18T00:35:26;9.77;;;8.80;;
1591;SDS011;789;51.612;7.510;2023-09-18T00:37:53;10.00;;;8.57;;
1591;SDS011;789;51.612;7.510;2023-09-18T00:40:21;9.90;;;8.90;;
1591;SDS011;789;51.612;7.510;2023-09-18T00:42:49;10.33;;;9.27;;
1591;SDS011;789;51.612;7.510;2023-09-18T00:45:16;9.67;;;8.77;;
1591;SDS011;789;51.612;7.510;2023-09-18T00:47:46;10.87;;;8.70;;
1591;SDS011;789;51.612;7.510;2023-09-18T00:50:13;10.20;;;9.20;;
1591;SDS011;789;51.612;7.510;2023-09-18T00:52:40;9.37;;;8.47;;
1591;SDS011;789;51.612;7.510;2023-09-18T00:55:08;10.20;;;9.20;;
1591;SDS011;789;51.612;7.510;2023-09-18T00:57:38;10.33;;;9.17;;
1591;SDS011;789;51.612;7.510;2023-09-18T01:00:05;9.97;;;9.17;;
1591;SDS011;789;51.612;7.510;2023-09-18T01:02:34;10.57;;;8.87;;
1591;SDS011;789;51.612;7.510;2023-09-18T01:05:00;11.40;;;8.40;;
1591;SDS011;789;51.612;7.510;2023-09-18T01:07:27;11.77;;;8.50;;
1591;SDS011;789;51.612;7.510;2023-09-18T01:09:54;9.10;;;8.30;;
1591;SDS011;789;51.612;7.510;2023-09-18T01:12:23;9.43;;;8.53;;
1591;SDS011;789;51.612;7.510;2023-09-18T01:14:59;10.33;;;8.23;;
1591;SDS011;789;51.612;7.510;2023-09-18T01:17:34;10.27;;;8.30;;
1591;SDS011;789;51.612;7.510;2023-09-18T01:20:03;9.40;;;8.60;;
1591;SDS011;789;51.612;7.510;2023-09-18T01:22:32;10.40;;;8.63;;
1591;SDS011;789;51.612;7.510;2023-09-18T01:24:59;11.40;;;9.63;;
1591;SDS011;789;51.612;7.510;2023-09-18T01:27:26;9.50;;;8.70;;
1591;SDS011;789;51.612;7.510;2023-09-18T01:29:53;10.40;;;8.60;;
1591;SDS011;789;51.612;7.510;2023-09-18T01:32:20;10.73;;;8.83;;
1591;SDS011;789;51.612;7.510;2023-09-18T01:34:52;9.00;;;8.10;;
1591;SDS011;789;51.612;7.510;2023-09-18T01:37:22;9.47;;;8.50;;
1591;SDS011;789;51.612;7.510;2023-09-18T01:39:53;10.60;;;8.30;;
1591;SDS011;789;51.612;7.510;2023-09-18T01:42:22;12.23;;;9.20;;
1591;SDS011;789;51.612;7.510;2023-09-18T01:44:51;12.20;;;9.07;;
1591;SDS011;789;51.612;7.510;2023-09-18T01:47:30;9.37;;;8.37;;
1591;SDS011;789;51.612;7.510;2023-09-18T01:49:57;9.83;;;8.73;;
1591;SDS011;789;51.612;7.510;2023-09-18T01:52:24;10.50;;;8.70;;
1591;SDS011;789;51.612;7.510;2023-09-18T01:54:52;13.20;;;9.30;;
1591;SDS011;789;51.612;7.510;2023-09-18T01:57:19;9.77;;;8.37;;
1591;SDS011;789;51.612;7.510;2023-09-18T01:59:46;10.17;;;9.13;;
1591;SDS011;789;51.612;7.510;2023-09-18T02:02:13;9.33;;;8.03;;
1591;SDS011;789;51.612;7.510;2023-09-18T02:04:40;10.43;;;9.43;;
1591;SDS011;789;51.612;7.510;2023-09-18T02:07:07;11.93;;;8.57;;
1591;SDS011;789;51.612;7.510;2023-09-18T02:09:35;10.10;;;9.03;;
1591;SDS011;789;51.612;7.510;2023-09-18T02:12:03;10.27;;;8.30;;
1591;SDS011;789;51.612;7.510;2023-09-18T02:14:31;12.63;;;8.17;;
1591;SDS011;789;51.612;7.510;2023-09-18T02:16:59;9.40;;;8.47;;
1591;SDS011;789;51.612;7.510;2023-09-18T02:19:26;11.97;;;8.63;;
1591;SDS011;789;51.612;7.510;2023-09-18T02:21:54;10.73;;;8.53;;
1591;SDS011;789;51.612;7.510;2023-09-18T02:24:22;9.70;;;8.70;;
1591;SDS011;789;51.612;7.510;2023-09-18T02:26:49;15.03;;;9.30;;
1591;SDS011;789;51.612;7.510;2023-09-18T02:29:17;10.13;;;8.27;;
1591;SDS011;789;51.612;7.510;2023-09-18T02:31:44;10.10;;;8.57;;
1591;SDS011;789;51.612;7.510;2023-09-18T02:34:11;11.47;;;8.70;;
1591;SDS011;789;51.612;7.510;2023-09-18T02:36:37;10.07;;;8.50;;
1591;SDS011;789;51.612;7.510;2023-09-18T02:39:04;10.50;;;7.87;;
1591;SDS011;789;51.612;7.510;2023-09-18T02:41:31;12.70;;;7.53;;
1591;SDS011;789;51.612;7.510;2023-09-18T02:43:58;9.60;;;8.70;;
1591;SDS011;789;51.612;7.510;2023-09-18T02:46:26;9.30;;;8.50;;
1591;SDS011;789;51.612;7.510;2023-09-18T02:48:54;11.13;;;8.30;;
1591;SDS011;789;51.612;7.510;2023-09-18T02:51:21;12.50;;;8.60;;
1591;SDS011;789;51.612;7.510;2023-09-18T02:53:48;9.67;;;7.70;;
1591;SDS011;789;51.612;7.510;2023-09-18T02:56:15;11.53;;;8.20;;
1591;SDS011;789;51.612;7.510;2023-09-18T02:58:42;12.13;;;8.50;;
1591;SDS011;789;51.612;7.510;2023-09-18T03:01:08;8.80;;;7.90;;
1591;SDS011;789;51.612;7.510;2023-09-18T03:03:37;11.13;;;8.83;;
1591;SDS011;789;51.612;7.510;2023-09-18T03:06:03;8.63;;;7.67;;
1591;SDS011;789;51.612;7.510;2023-09-18T03:08:31;9.23;;;7.90;;
1591;SDS011;789;51.612;7.510;2023-09-18T03:10:58;10.13;;;8.27;;
1591;SDS011;789;51.612;7.510;2023-09-18T03:13:26;9.37;;;8.47;;
1591;SDS011;789;51.612;7.510;2023-09-18T03:15:53;9.33;;;8.33;;
1591;SDS011;789;51.612;7.510;2023-09-18T03:18:21;11.20;;;8.90;;
1591;SDS011;789;51.612;7.510;2023-09-18T03:20:49;13.10;;;7.77;;
1591;SDS011;789;51.612;7.510;2023-09-18T03:23:16;10.23;;;8.83;;
1591;SDS011;789;51.612;7.510;2023-09-18T03:25:43;11.00;;;8.10;;
1591;SDS011;789;51.612;7.510;2023-09-18T03:28:10;10.70;;;8.00;;
1591;SDS011;789;51.612;7.510;2023-09-18T03:30:37;11.80;;;8.17;;
1591;SDS011;789;51.612;7.510;2023-09-18T03:33:04;10.23;;;7.97;;
1591;SDS011;789;51.612;7.510;2023-09-18T03:35:31;10.17;;;8.00;;
1591;SDS011;789;51.612;7.510;2023-09-18T03:37:59;11.87;;;8.47;;
1591;SDS011;789;51.612;7.510;2023-09-18T03:40:27;11.60;;;8.20;;
1591;SDS011;789;51.612;7.510;2023-09-18T03:42:54;10.50;;;8.73;;
1591;SDS011;789;51.612;7.510;2023-09-18T03:45:21;8.90;;;8.10;;
1591;SDS011;789;51.612;7.510;2023-09-18T03:47:48;9.03;;;8.10;;
1591;SDS011;789;51.612;7.510;2023-09-18T03:50:15;9.33;;;7.60;;
1591;SDS011;789;51.612;7.510;2023-09-18T03:52:42;9.70;;;7.97;;
1591;SDS011;789;51.612;7.510;2023-09-18T03:55:10;10.80;;;7.20;;
1591;SDS011;789;51.612;7.510;2023-09-18T03:57:38;12.47;;;6.70;;
1591;SDS011;789;51.612;7.510;2023-09-18T04:00:06;8.93;;;7.13;;
1591;SDS011;789;51.612;7.510;2023-09-18T04:02:34;10.00;;;6.33;;
1591;SDS011;789;51.612;7.510;2023-09-18T04:05:01;8.60;;;6.20;;
1591;SDS011;789;51.612;7.510;2023-09-18T04:07:28;10.47;;;6.70;;
1591;SDS011;789;51.612;7.510;2023-09-18T04:09:56;7.23;;;5.80;;
1591;SDS011;789;51.612;7.510;2023-09-18T04:12:24;8.37;;;5.20;;
1591;SDS011;789;51.612;7.510;2023-09-18T04:14:51;8.80;;;5.73;;
1591;SDS011;789;51.612;7.510;2023-09-18T04:17:18;6.60;;;5.50;;
1591;SDS011;789;51.612;7.510;2023-09-18T04:19:46;10.03;;;5.60;;
1591;SDS011;789;51.612;7.510;2023-09-18T04:22:13;6.47;;;5.17;;
1591;SDS011;789;51.612;7.510;2023-09-18T04:24:40;10.63;;;6.20;;
1591;SDS011;789;51.612;7.510;2023-09-18T04:27:07;7.00;;;5.30;;
1591;SDS011;789;51.612;7.510;2023-09-18T04:29:35;7.60;;;5.77;;
1591;SDS011;789;51.612;7.510;2023-09-18T04:32:02;9.10;;;5.60;;
1591;SDS011;789;51.612;7.510;2023-09-18T04:34:30;11.87;;;5.80;;
1591;SDS011;789;51.612;7.510;2023-09-18T04:37:00;7.97;;;5.93;;
1591;SDS011;789;51.612;7.510;2023-09-18T04:39:28;11.77;;;5.70;;
1591;SDS011;789;51.612;7.510;2023-09-18T04:41:56;10.33;;;5.30;;
1591;SDS011;789;51.612;7.510;2023-09-18T04:44:23;15.20;;;6.03;;
1591;SDS011;789;51.612;7.510;2023-09-18T04:46:52;6.83;;;5.40;;
1591;SDS011;789;51.612;7.510;2023-09-18T04:49:19;9.83;;;5.70;;
1591;SDS011;789;51.612;7.510;2023-09-18T04:51:51;15.20;;;6.20;;
1591;SDS011;789;51.612;7.510;2023-09-18T04:54:18;10.50;;;5.87;;
1591;SDS011;789;51.612;7.510;2023-09-18T04:56:44;13.10;;;5.50;;
1591;SDS011;789;51.612;7.510;2023-09-18T04:59:11;13.17;;;6.87;;
1591;SDS011;789;51.612;7.510;2023-09-18T05:01:40;14.00;;;6.87;;
1591;SDS011;789;51.612;7.510;2023-09-18T05:04:09;13.80;;;7.20;;
1591;SDS011;789;51.612;7.510;2023-09-18T05:06:36;14.43;;;7.60;;
1591;SDS011;789;51.612;7.510;2023-09-18T05:09:04;11.77;;;7.83;;
1591;SDS011;789;51.612;7.510;2023-09-18T05:11:31;17.00;;;9.23;;
1591;SDS011;789;51.612;7.510;2023-09-18T05:13:58;13.33;;;6.60;;
1591;SDS011;789;51.612;7.510;2023-09-18T05:16:24;12.33;;;6.50;;
1591;SDS011;789;51.612;7.510;2023-09-18T05:18:51;12.67;;;6.13;;
1591;SDS011;789;51.612;7.510;2023-09-18T05:21:19;12.40;;;7.10;;
1591;SDS011;789;51.612;7.510;2023-09-18T05:23:51;16.53;;;7.27;;
1591;SDS011;789;51.612;7.510;2023-09-18T05:26:27;17.13;;;5.50;;
1591;SDS011;789;51.612;7.510;2023-09-18T05:28:55;12.37;;;6.37;;
1591;SDS011;789;51.612;7.510;2023-09-18T05:31:22;20.60;;;6.37;;
1591;SDS011;789;51.612;7.510;2023-09-18T05:33:49;15.60;;;6.03;;
1591;SDS011;789;51.612;7.510;2023-09-18T05:36:16;12.70;;;5.97;;
1591;SDS011;789;51.612;7.510;2023-09-18T05:38:44;14.80;;;5.23;;
1591;SDS011;789;51.612;7.510;2023-09-18T05:41:11;23.70;;;8.03;;
1591;SDS011;789;51.612;7.510;2023-09-18T05:43:44;24.70;;;8.93;;
1591;SDS011;789;51.612;7.510;2023-09-18T05:46:11;17.13;;;7.57;;
1591;SDS011;789;51.612;7.510;2023-09-18T05:48:38;21.23;;;7.43;;
1591;SDS011;789;51.612;7.510;2023-09-18T05:51:05;18.03;;;6.70;;
1591;SDS011;789;51.612;7.510;2023-09-18T05:53:32;15.73;;;5.70;;
1591;SDS011;789;51.612;7.510;2023-09-18T05:56:10;20.30;;;7.10;;
1591;SDS011;789;51.612;7.510;2023-09-18T05:58:37;21.40;;;7.43;;
1591;SDS011;789;51.612;7.510;2023-09-18T06:01:04;20.67;;;7.30;;
1591;SDS011;789;51.612;7.510;2023-09-18T06:03:32;18.83;;;7.00;;
1591;SDS011;789;51.612;7.510;2023-09-18T06:06:00;15.67;;;6.23;;
1591;SDS011;789;51.612;7.510;2023-09-18T06:08:28;9.73;;;5.07;;
1591;SDS011;789;51.612;7.510;2023-09-18T06:10:55;12.17;;;5.20;;
1591;SDS011;789;51.612;7.510;2023-09-18T06:13:24;19.33;;;5.73;;
1591;SDS011;789;51.612;7.510;2023-09-18T06:15:51;18.47;;;5.70;;
1591;SDS011;789;51.612;7.510;2023-09-18T06:18:19;14.00;;;5.90;;
1591;SDS011;789;51.612;7.510;2023-09-18T06:20:46;12.30;;;5.30;;
1591;SDS011;789;51.612;7.510;2023-09-18T06:23:13;12.90;;;5.40;;
1591;SDS011;789;51.612;7.510;2023-09-18T06:25:40;16.47;;;5.80;;
1591;SDS011;789;51.612;7.510;2023-09-18T06:28:10;14.30;;;5.30;;
1591;SDS011;789;51.612;7.510;2023-09-18T06:30:40;10.63;;;5.30;;
1591;SDS011;789;51.612;7.510;2023-09-18T06:33:07;11.83;;;4.77;;
1591;SDS011;789;51.612;7.510;2023-09-18T06:35:36;12.73;;;5.60;;
1591;SDS011;789;51.612;7.510;2023-09-18T06:38:03;15.80;;;5.00;;
1591;SDS011;789;51.612;7.510;2023-09-18T06:40:33;13.80;;;5.13;;
1591;SDS011;789;51.612;7.510;2023-09-18T06:43:00;10.17;;;4.37;;
1591;SDS011;789;51.612;7.510;2023-09-18T06:45:27;18.27;;;5.13;;
1591;SDS011;789;51.612;7.510;2023-09-18T06:47:57;11.90;;;5.50;;
1591;SDS011;789;51.612;7.510;2023-09-18T06:50:26;14.00;;;5.80;;
1591;SDS011;789;51.612;7.510;2023-09-18T06:52:53;13.00;;;4.60;;
1591;SDS011;789;51.612;7.510;2023-09-18T06:55:19;13.63;;;4.30;;
1591;SDS011;789;51.612;7.510;2023-09-18T06:57:46;11.90;;;5.23;;
1591;SDS011;789;51.612;7.510;2023-09-18T07:00:16;17.13;;;4.53;;
1591;SDS011;789;51.612;7.510;2023-09-18T07:02:48;14.20;;;5.20;;
1591;SDS011;789;51.612;7.510;2023-09-18T07:05:16;11.40;;;3.90;;
1591;SDS011;789;51.612;7.510;2023-09-18T07:07:43;13.40;;;4.73;;
1591;SDS011;789;51.612;7.510;2023-09-18T07:10:10;8.03;;;4.07;;
1591;SDS011;789;51.612;7.510;2023-09-18T07:12:37;11.77;;;4.80;;
1591;SDS011;789;51.612;7.510;2023-09-18T07:15:04;14.30;;;4.50;;
1591;SDS011;789;51.612;7.510;2023-09-18T07:17:32;12.30;;;4.17;;
1591;SDS011;789;51.612;7.510;2023-09-18T07:20:01;12.17;;;4.83;;
1591;SDS011;789;51.612;7.510;2023-09-18T07:22:36;7.80;;;3.80;;
1591;SDS011;789;51.612;7.510;2023-09-18T07:25:03;7.97;;;3.97;;
1591;SDS011;789;51.612;7.510;2023-09-18T07:27:31;6.83;;;3.97;;
1591;SDS011;789;51.612;7.510;2023-09-18T07:29:58;12.43;;;4.30;;
1591;SDS011;789;51.612;7.510;2023-09-18T07:32:25;8.23;;;4.13;;
1591;SDS011;789;51.612;7.510;2023-09-18T07:34:53;8.50;;;3.97;;
1591;SDS011;789;51.612;7.510;2023-09-18T07:37:20;11.43;;;3.40;;
1591;SDS011;789;51.612;7.510;2023-09-18T07:39:48;5.73;;;3.10;;
1591;SDS011;789;51.612;7.510;2023-09-18T07:42:29;11.07;;;4.37;;
1591;SDS011;789;51.612;7.510;2023-09-18T07:45:05;11.70;;;3.80;;
1591;SDS011;789;51.612;7.510;2023-09-18T07:47:32;9.37;;;4.60;;
1591;SDS011;789;51.612;7.510;2023-09-18T07:49:59;7.77;;;4.07;;
1591;SDS011;789;51.612;7.510;2023-09-18T07:52:26;10.40;;;3.30;;
1591;SDS011;789;51.612;7.510;2023-09-18T07:54:55;5.73;;;3.43;;
1591;SDS011;789;51.612;7.510;2023-09-18T07:57:23;8.10;;;3.90;;
1591;SDS011;789;51.612;7.510;2023-09-18T07:59:50;8.30;;;4.30;;
1591;SDS011;789;51.612;7.510;2023-09-18T08:02:18;12.30;;;4.20;;
1591;SDS011;789;51.612;7.510;2023-09-18T08:04:49;7.80;;;3.30;;
1591;SDS011;789;51.612;7.510;2023-09-18T08:07:18;11.20;;;4.30;;
1591;SDS011;789;51.612;7.510;2023-09-18T08:09:49;7.43;;;3.73;;
1591;SDS011;789;51.612;7.510;2023-09-18T08:12:17;12.53;;;4.10;;
1591;SDS011;789;51.612;7.510;2023-09-18T08:14:47;10.03;;;3.33;;
1591;SDS011;789;51.612;7.510;2023-09-18T08:17:16;8.67;;;3.33;;
1591;SDS011;789;51.612;7.510;2023-09-18T08:19:43;8.93;;;3.90;;
1591;SDS011;789;51.612;7.510;2023-09-18T08:22:12;5.83;;;3.97;;
1591;SDS011;789;51.612;7.510;2023-09-18T08:24:48;6.90;;;3.73;;
1591;SDS011;789;51.612;7.510;2023-09-18T08:27:20;8.43;;;3.50;;
1591;SDS011;789;51.612;7.510;2023-09-18T08:29:48;8.23;;;4.13;;
1591;SDS011;789;51.612;7.510;2023-09-18T08:32:15;8.10;;;3.17;;
1591;SDS011;789;51.612;7.510;2023-09-18T08:34:45;5.23;;;2.80;;
1591;SDS011;789;51.612;7.510;2023-09-18T08:37:15;6.27;;;3.07;;
1591;SDS011;789;51.612;7.510;2023-09-18T08:39:43;9.50;;;3.30;;
1591;SDS011;789;51.612;7.510;2023-09-18T08:42:13;6.90;;;3.20;;
1591;SDS011;789;51.612;7.510;2023-09-18T08:44:48;7.97;;;3.10;;
1591;SDS011;789;51.612;7.510;2023-09-18T08:47:17;6.57;;;3.07;;
1591;SDS011;789;51.612;7.510;2023-09-18T08:49:53;8.20;;;2.73;;
1591;SDS011;789;51.612;7.510;2023-09-18T08:52:22;4.20;;;2.63;;
1591;SDS011;789;51.612;7.510;2023-09-18T08:54:51;4.17;;;2.80;;
1591;SDS011;789;51.612;7.510;2023-09-18T08:57:20;6.23;;;3.10;;
1591;SDS011;789;51.612;7.510;2023-09-18T08:59:49;5.17;;;2.77;;
1591;SDS011;789;51.612;7.510;2023-09-18T09:02:16;9.20;;;3.60;;
1591;SDS011;789;51.612;7.510;2023-09-18T09:04:43;6.10;;;2.53;;
1591;SDS011;789;51.612;7.510;2023-09-18T09:07:10;5.57;;;2.70;;
1591;SDS011;789;51.612;7.510;2023-09-18T09:09:38;7.30;;;3.03;;
1591;SDS011;789;51.612;7.510;2023-09-18T09:12:06;6.27;;;3.20;;
1591;SDS011;789;51.612;7.510;2023-09-18T09:14:34;5.27;;;2.60;;
1591;SDS011;789;51.612;7.510;2023-09-18T09:17:02;4.63;;;2.70;;
1591;SDS011;789;51.612;7.510;2023-09-18T09:19:29;8.50;;;5.93;;
1591;SDS011;789;51.612;7.510;2023-09-18T09:21:57;7.50;;;3.47;;
1591;SDS011;789;51.612;7.510;2023-09-18T09:24:38;4.90;;;2.70;;
1591;SDS011;789;51.612;7.510;2023-09-18T09:27:06;8.40;;;2.53;;
1591;SDS011;789;51.612;7.510;2023-09-18T09:29:33;4.63;;;2.50;;
1591;SDS011;789;51.612;7.510;2023-09-18T09:32:13;10.00;;;2.60;;
1591;SDS011;789;51.612;7.510;2023-09-18T09:34:41;3.63;;;2.33;;
1591;SDS011;789;51.612;7.510;2023-09-18T09:37:08;5.00;;;2.70;;
1591;SDS011;789;51.612;7.510;2023-09-18T09:39:45;7.40;;;2.13;;
1591;SDS011;789;51.612;7.510;2023-09-18T09:42:15;5.90;;;2.40;;
1591;SDS011;789;51.612;7.510;2023-09-18T09:44:47;8.50;;;3.30;;
1591;SDS011;789;51.612;7.510;2023-09-18T09:47:15;5.33;;;2.53;;
1591;SDS011;789;51.612;7.510;2023-09-18T09:49:45;7.20;;;2.20;;
1591;SDS011;789;51.612;7.510;2023-09-18T09:52:19;4.00;;;2.47;;
1591;SDS011;789;51.612;7.510;2023-09-18T09:54:47;5.77;;;2.90;;
1591;SDS011;789;51.612;7.510;2023-09-18T09:57:14;7.80;;;2.33;;
1591;SDS011;789;51.612;7.510;2023-09-18T09:59:41;5.63;;;2.50;;
1591;SDS011;789;51.612;7.510;2023-09-18T10:02:10;6.57;;;3.53;;
1591;SDS011;789;51.612;7.510;2023-09-18T10:04:45;5.47;;;3.20;;
1591;SDS011;789;51.612;7.510;2023-09-18T10:07:15;7.20;;;2.20;;
1591;SDS011;789;51.612;7.510;2023-09-18T10:09:44;6.10;;;2.80;;
1591;SDS011;789;51.612;7.510;2023-09-18T10:12:12;6.33;;;2.57;;
1591;SDS011;789;51.612;7.510;2023-09-18T10:14:45;6.50;;;2.50;;
1591;SDS011;789;51.612;7.510;2023-09-18T10:17:16;3.77;;;2.07;;
1591;SDS011;789;51.612;7.510;2023-09-18T10:19:49;7.07;;;2.17;;
1591;SDS011;789;51.612;7.510;2023-09-18T10:22:27;5.93;;;2.10;;
1591;SDS011;789;51.612;7.510;2023-09-18T10:25:06;5.07;;;2.23;;
1591;SDS011;789;51.612;7.510;2023-09-18T10:27:38;7.10;;;2.73;;
1591;SDS011;789;51.612;7.510;2023-09-18T10:30:07;4.73;;;2.40;;
1591;SDS011;789;51.612;7.510;2023-09-18T10:32:37;5.87;;;2.37;;
1591;SDS011;789;51.612;7.510;2023-09-18T10:35:08;2.50;;;2.00;;
1591;SDS011;789;51.612;7.510;2023-09-18T10:37:37;4.23;;;2.10;;
1591;SDS011;789;51.612;7.510;2023-09-18T10:40:14;6.83;;;2.27;;
1591;SDS011;789;51.612;7.510;2023-09-18T10:42:43;5.90;;;2.73;;
1591;SDS011;789;51.612;7.510;2023-09-18T10:45:12;4.10;;;2.70;;
1591;SDS011;789;51.612;7.510;2023-09-18T10:47:44;5.27;;;2.43;;
1591;SDS011;789;51.612;7.510;2023-09-18T10:50:15;3.97;;;2.30;;
1591;SDS011;789;51.612;7.510;2023-09-18T10:52:51;4.93;;;2.10;;
1591;SDS011;789;51.612;7.510;2023-09-18T10:55:18;6.57;;;2.00;;
1591;SDS011;789;51.612;7.510;2023-09-18T10:57:50;5.27;;;2.33;;
1591;SDS011;789;51.612;7.510;2023-09-18T11:00:18;6.20;;;2.30;;
1591;SDS011;789;51.612;7.510;2023-09-18T11:02:50;7.17;;;2.50;;
1591;SDS011;789;51.612;7.510;2023-09-18T11:05:32;4.10;;;2.50;;
1591;SDS011;789;51.612;7.510;2023-09-18T11:10:54;4.00;;;2.43;;
1591;SDS011;789;51.612;7.510;2023-09-18T11:13:29;5.90;;;2.00;;
1591;SDS011;789;51.612;7.510;2023-09-18T11:16:00;3.30;;;2.10;;
1591;SDS011;789;51.612;7.510;2023-09-18T11:18:32;4.70;;;2.50;;
1591;SDS011;789;51.612;7.510;2023-09-18T11:21:07;4.60;;;2.27;;
1591;SDS011;789;51.612;7.510;2023-09-18T11:23:35;3.97;;;2.93;;
1591;SDS011;789;51.612;7.510;2023-09-18T11:26:03;8.13;;;2.90;;
1591;SDS011;789;51.612;7.510;2023-09-18T11:28:33;4.57;;;2.37;;
1591;SDS011;789;51.612;7.510;2023-09-18T11:31:00;4.40;;;2.30;;
1591;SDS011;789;51.612;7.510;2023-09-18T11:33:34;5.10;;;2.37;;
1591;SDS011;789;51.612;7.510;2023-09-18T11:36:03;5.67;;;2.27;;
1591;SDS011;789;51.612;7.510;2023-09-18T11:38:34;4.03;;;2.60;;
1591;SDS011;789;51.612;7.510;2023-09-18T11:41:14;4.13;;;2.17;;
1591;SDS011;789;51.612;7.510;2023-09-18T11:43:47;6.53;;;2.40;;
1591;SDS011;789;51.612;7.510;2023-09-18T11:46:17;3.43;;;2.13;;
1591;SDS011;789;51.612;7.510;2023-09-18T11:48:47;8.20;;;4.40;;
1591;SDS011;789;51.612;7.510;2023-09-18T11:51:20;4.00;;;2.53;;
1591;SDS011;789;51.612;7.510;2023-09-18T11:53:49;7.10;;;2.53;;
1591;SDS011;789;51.612;7.510;2023-09-18T11:56:19;4.57;;;2.27;;
1591;SDS011;789;51.612;7.510;2023-09-18T11:58:47;7.07;;;2.73;;
1591;SDS011;789;51.612;7.510;2023-09-18T12:01:14;4.50;;;2.20;;
1591;SDS011;789;51.612;7.510;2023-09-18T12:03:41;4.77;;;3.10;;
1591;SDS011;789;51.612;7.510;2023-09-18T12:06:08;9.40;;;2.83;;
1591;SDS011;789;51.612;7.510;2023-09-18T12:08:38;2.93;;;1.97;;
1591;SDS011;789;51.612;7.510;2023-09-18T12:11:07;4.50;;;2.27;;
1591;SDS011;789;51.612;7.510;2023-09-18T12:13:34;5.03;;;2.30;;
1591;SDS011;789;51.612;7.510;2023-09-18T12:16:10;9.53;;;2.77;;
1591;SDS011;789;51.612;7.510;2023-09-18T12:18:46;11.23;;;3.00;;
1591;SDS011;789;51.612;7.510;2023-09-18T12:21:14;9.13;;;2.70;;
1591;SDS011;789;51.612;7.510;2023-09-18T12:23:44;5.90;;;2.40;;
1591;SDS011;789;51.612;7.510;2023-09-18T12:26:14;4.70;;;2.33;;
1591;SDS011;789;51.612;7.510;2023-09-18T12:28:43;7.13;;;3.27;;
1591;SDS011;789;51.612;7.510;2023-09-18T12:31:14;3.67;;;2.73;;
1591;SDS011;789;51.612;7.510;2023-09-18T12:33:44;3.03;;;2.27;;
1591;SDS011;789;51.612;7.510;2023-09-18T12:36:12;3.77;;;2.67;;
1591;SDS011;789;51.612;7.510;2023-09-18T12:38:59;3.60;;;2.70;;
1591;SDS011;789;51.612;7.510;2023-09-18T12:41:35;5.20;;;2.33;;
1591;SDS011;789;51.612;7.510;2023-09-18T12:44:16;2.87;;;2.03;;
1591;SDS011;789;51.612;7.510;2023-09-18T12:46:44;2.60;;;1.80;;
1591;SDS011;789;51.612;7.510;2023-09-18T12:49:15;3.60;;;2.00;;
1591;SDS011;789;51.612;7.510;2023-09-18T12:51:54;3.67;;;2.20;;
1591;SDS011;789;51.612;7.510;2023-09-18T12:54:36;4.40;;;2.30;;
1591;SDS011;789;51.612;7.510;2023-09-18T12:57:09;4.00;;;2.20;;
1591;SDS011;789;51.612;7.510;2023-09-18T12:59:37;4.80;;;2.40;;
1591;SDS011;789;51.612;7.510;2023-09-18T13:02:05;5.47;;;2.00;;
1591;SDS011;789;51.612;7.510;2023-09-18T13:04:32;6.07;;;2.40;;
1591;SDS011;789;51.612;7.510;2023-09-18T13:07:07;3.60;;;2.47;;
1591;SDS011;789;51.612;7.510;2023-09-18T13:09:39;4.33;;;2.40;;
1591;SDS011;789;51.612;7.510;2023-09-18T13:12:13;4.07;;;2.40;;
1591;SDS011;789;51.612;7.510;2023-09-18T13:14:59;13.07;;;5.07;;
1591;SDS011;789;51.612;7.510;2023-09-18T13:17:36;8.33;;;4.40;;
1591;SDS011;789;51.612;7.510;2023-09-18T13:20:10;4.83;;;2.70;;
1591;SDS011;789;51.612;7.510;2023-09-18T13:22:47;8.90;;;2.60;;
1591;SDS011;789;51.612;7.510;2023-09-18T13:25:20;7.10;;;2.53;;
1591;SDS011;789;51.612;7.510;2023-09-18T13:27:50;6.50;;;2.60;;
1591;SDS011;789;51.612;7.510;2023-09-18T13:30:18;3.40;;;2.47;;
1591;SDS011;789;51.612;7.510;2023-09-18T13:32:47;2.80;;;2.20;;
1591;SDS011;789;51.612;7.510;2023-09-18T13:35:18;5.73;;;2.63;;
1591;SDS011;789;51.612;7.510;2023-09-18T13:37:45;5.17;;;2.40;;
1591;SDS011;789;51.612;7.510;2023-09-18T13:40:12;2.53;;;2.33;;
1591;SDS011;789;51.612;7.510;2023-09-18T13:42:39;5.83;;;2.70;;
1591;SDS011;789;51.612;7.510;2023-09-18T13:45:12;2.90;;;2.00;;
1591;SDS011;789;51.612;7.510;2023-09-18T13:47:41;6.37;;;2.67;;
1591;SDS011;789;51.612;7.510;2023-09-18T13:50:08;2.90;;;2.60;;
1591;SDS011;789;51.612;7.510;2023-09-18T13:52:38;5.10;;;2.70;;
1591;SDS011;789;51.612;7.510;2023-09-18T13:55:05;4.83;;;2.67;;
1591;SDS011;789;51.612;7.510;2023-09-18T13:57:33;5.27;;;2.60;;
1591;SDS011;789;51.612;7.510;2023-09-18T14:00:01;4.73;;;2.57;;
1591;SDS011;789;51.612;7.510;2023-09-18T14:02:31;4.17;;;2.50;;
1591;SDS011;789;51.612;7.510;2023-09-18T14:04:58;4.60;;;2.60;;
1591;SDS011;789;51.612;7.510;2023-09-18T14:07:25;5.20;;;2.40;;
1591;SDS011;789;51.612;7.510;2023-09-18T14:09:52;4.63;;;2.80;;
1591;SDS011;789;51.612;7.510;2023-09-18T14:12:21;5.37;;;2.43;;
1591;SDS011;789;51.612;7.510;2023-09-18T14:14:48;2.80;;;2.13;;
1591;SDS011;789;51.612;7.510;2023-09-18T14:17:15;3.80;;;2.20;;
1591;SDS011;789;51.612;7.510;2023-09-18T14:19:50;6.83;;;2.57;;
1591;SDS011;789;51.612;7.510;2023-09-18T14:22:18;7.27;;;2.93;;
1591;SDS011;789;51.612;7.510;2023-09-18T14:24:45;4.63;;;2.60;;
1591;SDS011;789;51.612;7.510;2023-09-18T14:27:12;5.33;;;2.50;;
1591;SDS011;789;51.612;7.510;2023-09-18T14:29:39;5.83;;;2.57;;
1591;SDS011;789;51.612;7.510;2023-09-18T14:32:06;3.87;;;2.40;;
1591;SDS011;789;51.612;7.510;2023-09-18T14:34:33;6.63;;;2.70;;
1591;SDS011;789;51.612;7.510;2023-09-18T14:37:02;4.10;;;2.63;;
1591;SDS011;789;51.612;7.510;2023-09-18T14:39:29;3.13;;;2.50;;
1591;SDS011;789;51.612;7.510;2023-09-18T14:41:56;6.57;;;2.40;;
1591;SDS011;789;51.612;7.510;2023-09-18T14:44:24;6.00;;;2.80;;
1591;SDS011;789;51.612;7.510;2023-09-18T14:46:52;3.53;;;2.33;;
1591;SDS011;789;51.612;7.510;2023-09-18T14:49:19;5.20;;;2.60;;
1591;SDS011;789;51.612;7.510;2023-09-18T14:51:46;4.60;;;2.40;;
1591;SDS011;789;51.612;7.510;2023-09-18T14:54:15;4.20;;;2.20;;
1591;SDS011;789;51.612;7.510;2023-09-18T14:56:42;4.07;;;2.47;;
1591;SDS011;789;51.612;7.510;2023-09-18T14:59:11;2.67;;;2.07;;
1591;SDS011;789;51.612;7.510;2023-09-18T15:01:38;4.20;;;2.30;;
1591;SDS011;789;51.612;7.510;2023-09-18T15:04:07;3.40;;;2.10;;
1591;SDS011;789;51.612;7.510;2023-09-18T15:06:34;2.33;;;2.13;;
1591;SDS011;789;51.612;7.510;2023-09-18T15:09:01;3.63;;;2.70;;
1591;SDS011;789;51.612;7.510;2023-09-18T15:11:30;3.53;;;2.23;;
1591;SDS011;789;51.612;7.510;2023-09-18T15:13:59;6.07;;;2.27;;
1591;SDS011;789;51.612;7.510;2023-09-18T15:16:26;3.73;;;2.80;;
1591;SDS011;789;51.612;7.510;2023-09-18T15:18:54;4.50;;;2.77;;
1591;SDS011;789;51.612;7.510;2023-09-18T15:21:23;3.73;;;2.03;;
1591;SDS011;789;51.612;7.510;2023-09-18T15:23:50;3.57;;;1.90;;
1591;SDS011;789;51.612;7.510;2023-09-18T15:26:17;4.40;;;2.23;;
1591;SDS011;789;51.612;7.510;2023-09-18T15:28:45;4.37;;;2.60;;
1591;SDS011;789;51.612;7.510;2023-09-18T15:31:12;2.70;;;2.27;;
1591;SDS011;789;51.612;7.510;2023-09-18T15:33:41;1.67;;;1.57;;
1591;SDS011;789;51.612;7.510;2023-09-18T15:36:09;3.93;;;2.20;;
1591;SDS011;789;51.612;7.510;2023-09-18T15:38:36;2.43;;;2.07;;